Asotin, Washington
Current Conditions -  °F | °C
As of 8:56 PM on Wednesday 22 Oct 2014 (Local Time) from KLWS Reporting Station
Overcast Overcast  
Wind Chill: 17°   Ceiling: 10000
Heat Index: 17°   Visibility: 10mi
Dew Point:   Wind: 0mph
Humidity: 39%   Direction: NA
Pressure: 29.79"   Gusts: NA
Location:  46.34°N, 117.05°W
Report Text: KLWS 230356Z 00000KT 10SM OVC100 17/03 A2979 RMK AO2 SLP089 T01670028
Loading
Personal Weather Stations






























Interactive Weather Map
Tropical Storm Tracking
New forecast layout! Learn more

10-Day Weather Forecast

Advertisements
Track Severe Weather on mobile